Toronto/City Centre Seaplane Base

CPZ9 · 安大略, 加拿大

罗盘
风向 的 风向 的 风向 到 风向 300°
风向 到 风: 5 kt, 阵阵 16 kt, 2 beaufort

添加一条跑道以查看侧风和逆风信息。

添置 跑道
0 ft 1.000 2.000 3.000 4.000 5.000
没有云
METAR CYTZ 150400Z AUTO 30005G16KT 260V350 9SM CLR 17/10 A3001 RMK SLP165 DENSITY ALT 500FT

METAR Toronto/City Centre Seaplane Base - CPZ9

Toronto/City Centre Seaplane Base是,加拿大中的水上飞机基地。 该机场位于纬度43,63310和经度-79,39440。 该机场的伪ICAO代码为CPZ9。 机场在Toronto FIR中。

该航空气象观测是针对Toronto/City Centre Airport在2024年6月15日 00:00, 当地时间进行的。

机场观察

风向为300°,速度为5 kt。 已测得16 kt的阵风。 风向在260°和350°之间变化。

可见度为9 mi。

有没有云。 没有观察到天花板。

温度和风寒是17 °C。 露点为10 °C,相对湿度为64%。 海平面上的气压为30,01 inHg (QNH)。

白天

今天,太阳从05:35升起,在21:01降落。 这适用于Toronto/City Centre Seaplane Base,世界夏令时可能有所不同。 当地时间与世界标准时间之间的时差为-4 小时。 夏令时目前正在进行中。

公司介绍

我们没有关于这个机场的公司信息。

体会

到Vliegles.nl去找飞行课程,跳伞和其他飞行体验。 浏览页面,了解Toronto/City Centre Seaplane Base附近所有可用的活动。 你也可以使用搜索功能来寻找你所在地附近的特定飞行课程、跳伞或其他飞行体验。

乌云

- CLR 没有云

温度 & 天气

温度 17 °C
露点 10 °C
相对湿度 64%
Kp-index 1 (0-9)

评论

SLP165海平面压力为30,02 inHg (30,02 inHg)
DENSITY ALT 500FT

白天

日出
05:35 (5:12)
中午
13:18
日落
21:01

小工具

你想在你的网站上有一个关于Toronto/City Centre Seaplane Base的当前航空天气(METAR)的小部件吗?

显示HTML代码
报告变更